createdAt,value
2022-11-05T00:00:52.713Z,97949.03
2022-11-05T00:03:10.064Z,97953.53
2022-11-05T00:05:28.287Z,97963.94
2022-11-05T00:07:52.762Z,97955.00
2022-11-05T00:10:01.601Z,97956.69
2022-11-05T00:12:22.124Z,97956.63
2022-11-05T00:14:39.376Z,97960.97
2022-11-05T00:16:47.018Z,97973.84
2022-11-05T00:19:06.697Z,97966.00
2022-11-05T00:21:31.931Z,97967.72
2022-11-05T00:23:51.716Z,97974.69
2022-11-05T00:25:55.707Z,97975.66
2022-11-05T00:28:04.830Z,97973.84
2022-11-05T00:30:11.179Z,97975.47
2022-11-05T00:32:15.963Z,97980.53
2022-11-05T00:34:20.737Z,97978.72
2022-11-05T00:36:27.997Z,97978.56
2022-11-05T00:38:33.326Z,97980.19
2022-11-05T00:40:40.568Z,97974.19
2022-11-05T00:43:01.471Z,97973.28
2022-11-05T00:45:05.112Z,97969.78
2022-11-05T00:47:22.107Z,97975.72
2022-11-05T00:49:32.603Z,97976.44
2022-11-05T00:51:37.412Z,97983.38
2022-11-05T00:53:42.717Z,97985.16
2022-11-05T00:55:50.379Z,97983.47
2022-11-05T00:57:55.419Z,97990.31
2022-11-05T01:00:00.234Z,97992.81
2022-11-05T01:02:05.115Z,97994.53
2022-11-05T01:04:10.191Z,97996.16
2022-11-05T01:06:17.292Z,97995.13
2022-11-05T01:08:25.602Z,97996.00
2022-11-05T01:10:30.728Z,97998.53
2022-11-05T01:12:40.493Z,97993.25
2022-11-05T01:14:45.598Z,97994.09
2022-11-05T01:16:50.399Z,97994.09
2022-11-05T01:18:55.221Z,98001.13
2022-11-05T01:20:59.958Z,98004.66
2022-11-05T01:23:07.596Z,98003.97
2022-11-05T01:25:17.497Z,98009.44
2022-11-05T01:27:22.274Z,98013.88
2022-11-05T01:29:29.869Z,98011.28
2022-11-05T01:31:34.647Z,98019.84
2022-11-05T01:33:39.478Z,98031.88
2022-11-05T01:35:44.206Z,98034.47
2022-11-05T01:37:49.538Z,98030.09
2022-11-05T01:39:54.033Z,98031.38
2022-11-05T01:41:59.046Z,98040.25
2022-11-05T01:44:03.915Z,98038.44
2022-11-05T01:46:11.452Z,98039.41
2022-11-05T01:48:21.051Z,98045.41
2022-11-05T01:50:39.724Z,98046.09
2022-11-05T01:52:44.540Z,98047.41
2022-11-05T01:54:49.952Z,98052.50
2022-11-05T01:56:59.350Z,98050.47
2022-11-05T01:59:08.451Z,98051.94
2022-11-05T02:01:15.927Z,98053.47
2022-11-05T02:03:22.019Z,98049.81
2022-11-05T02:05:26.957Z,98054.88
2022-11-05T02:07:32.897Z,98048.69
2022-11-05T02:09:45.149Z,98046.09
2022-11-05T02:11:50.238Z,98052.38
2022-11-05T02:13:55.298Z,98051.03
2022-11-05T02:16:07.774Z,98055.31
2022-11-05T02:18:27.876Z,98060.38
2022-11-05T02:20:41.886Z,98058.50
2022-11-05T02:23:12.600Z,98061.94
2022-11-05T02:25:40.580Z,98055.91
2022-11-05T02:28:08.628Z,98061.25
2022-11-05T02:30:37.640Z,98066.56
2022-11-05T02:33:26.940Z,98066.84
2022-11-05T02:35:51.739Z,98068.59
2022-11-05T02:38:01.565Z,98066.97
2022-11-05T02:40:14.090Z,98074.03
2022-11-05T02:42:30.852Z,98078.66
2022-11-05T02:44:43.721Z,98085.44
2022-11-05T02:46:59.995Z,98097.47
2022-11-05T02:49:16.697Z,98094.22
2022-11-05T02:51:29.284Z,98093.25
2022-11-05T02:53:42.662Z,98100.78
2022-11-05T02:55:53.074Z,98098.94
2022-11-05T02:57:59.843Z,98103.16
2022-11-05T03:00:05.572Z,98088.41
2022-11-05T03:02:13.324Z,98089.16
2022-11-05T03:04:21.543Z,98090.88
2022-11-05T03:06:51.420Z,98092.41
2022-11-05T03:09:28.761Z,98082.41
2022-11-05T03:11:37.387Z,98093.09
2022-11-05T03:13:51.186Z,98087.94
2022-11-05T03:16:01.243Z,98079.09
2022-11-05T03:18:14.649Z,98097.53
2022-11-05T03:20:23.745Z,98092.41
2022-11-05T03:22:37.503Z,98095.91
2022-11-05T03:24:45.982Z,98103.00
2022-11-05T03:26:56.320Z,98100.53
2022-11-05T03:29:06.723Z,98105.09
2022-11-05T03:31:16.227Z,98110.38
2022-11-05T03:33:29.740Z,98109.47
2022-11-05T03:35:39.022Z,98117.97
2022-11-05T03:37:46.514Z,98117.66
2022-11-05T03:39:55.286Z,98114.19
2022-11-05T03:42:01.844Z,98117.41
2022-11-05T03:44:09.934Z,98111.97
2022-11-05T03:46:20.411Z,98113.22
2022-11-05T03:48:30.765Z,98116.06
2022-11-05T03:50:41.877Z,98117.91
2022-11-05T03:52:51.624Z,98124.81
2022-11-05T03:54:56.851Z,98120.72
2022-11-05T03:57:07.529Z,98120.78
2022-11-05T03:59:14.390Z,98134.88
2022-11-05T04:01:19.375Z,98130.41
2022-11-05T04:03:26.906Z,98132.22
2022-11-05T04:05:31.805Z,98128.09
2022-11-05T04:07:49.204Z,98130.25
2022-11-05T04:10:06.389Z,98132.19
2022-11-05T04:12:24.480Z,98132.59
2022-11-05T04:14:29.260Z,98130.16
2022-11-05T04:17:01.489Z,98134.47
2022-11-05T04:19:08.943Z,98134.78
2022-11-05T04:21:26.617Z,98132.91
2022-11-05T04:23:43.834Z,98143.50
2022-11-05T04:25:48.635Z,98153.91
2022-11-05T04:27:55.247Z,98159.09
2022-11-05T04:30:12.458Z,98155.41
2022-11-05T04:32:17.251Z,98160.34
2022-11-05T04:34:25.034Z,98161.78
2022-11-05T04:36:30.330Z,98163.41
2022-11-05T04:38:34.809Z,98154.81
2022-11-05T04:40:40.195Z,98153.25
2022-11-05T04:42:44.639Z,98155.44
2022-11-05T04:44:49.454Z,98159.63
2022-11-05T04:46:54.275Z,98163.75
2022-11-05T04:48:59.098Z,98169.56
2022-11-05T04:51:07.342Z,98169.31
2022-11-05T04:53:12.685Z,98175.19
2022-11-05T04:55:17.892Z,98177.75
2022-11-05T04:57:22.666Z,98177.63
2022-11-05T04:59:27.432Z,98187.19
2022-11-05T05:01:32.307Z,98181.06
2022-11-05T05:03:37.188Z,98186.03
2022-11-05T05:05:41.962Z,98183.41
2022-11-05T05:07:49.311Z,98198.53
2022-11-05T05:09:54.994Z,98201.03
2022-11-05T05:11:59.870Z,98205.00
2022-11-05T05:14:04.636Z,98209.16
2022-11-05T05:16:10.809Z,98202.19
2022-11-05T05:18:15.590Z,98214.34
2022-11-05T05:20:33.159Z,98206.28
2022-11-05T05:22:37.971Z,98218.06
2022-11-05T05:24:52.549Z,98215.25
2022-11-05T05:26:57.776Z,98211.09
2022-11-05T05:29:02.471Z,98215.38
2022-11-05T05:31:07.339Z,98215.25
2022-11-05T05:33:12.303Z,98223.00
2022-11-05T05:35:17.121Z,98216.94
2022-11-05T05:37:22.607Z,98226.63
2022-11-05T05:39:27.394Z,98234.31
2022-11-05T05:41:34.762Z,98235.78
2022-11-05T05:43:39.649Z,98242.63
2022-11-05T05:45:44.465Z,98244.25
2022-11-05T05:47:49.385Z,98249.22
2022-11-05T05:49:54.135Z,98253.31
2022-11-05T05:51:59.509Z,98257.53
2022-11-05T05:54:04.237Z,98259.19
2022-11-05T05:56:10.235Z,98254.66
2022-11-05T05:58:17.555Z,98249.41
2022-11-05T06:00:22.457Z,98265.03
2022-11-05T06:02:27.371Z,98257.16
2022-11-05T06:04:32.213Z,98257.28
2022-11-05T06:06:36.962Z,98259.84
2022-11-05T06:08:42.728Z,98257.97
2022-11-05T06:10:53.499Z,98259.69
2022-11-05T06:12:58.433Z,98264.06
2022-11-05T06:15:06.596Z,98261.31
2022-11-05T06:17:11.453Z,98255.28
2022-11-05T06:19:16.169Z,98264.78
2022-11-05T06:21:21.405Z,98263.09
2022-11-05T06:23:26.116Z,98270.78
2022-11-05T06:25:30.937Z,98272.50
2022-11-05T06:27:36.206Z,98277.56
2022-11-05T06:29:40.767Z,98284.69
2022-11-05T06:31:48.206Z,98276.81
2022-11-05T06:33:53.015Z,98290.72
2022-11-05T06:36:00.716Z,98287.16
2022-11-05T06:38:05.544Z,98288.88
2022-11-05T06:40:12.277Z,98294.06
2022-11-05T06:42:18.677Z,98294.91
2022-11-05T06:44:26.151Z,98293.16
2022-11-05T06:46:30.944Z,98296.72
2022-11-05T06:48:38.350Z,98301.88
2022-11-05T06:50:49.987Z,98300.88
2022-11-05T06:52:58.339Z,98312.19
2022-11-05T06:55:03.403Z,98311.19
2022-11-05T06:57:09.655Z,98313.59
2022-11-05T06:59:14.922Z,98319.72
2022-11-05T07:01:19.771Z,98322.25
2022-11-05T07:03:24.663Z,98322.31
2022-11-05T07:05:32.267Z,98323.34
2022-11-05T07:07:37.091Z,98330.41
2022-11-05T07:09:43.235Z,98324.13
2022-11-05T07:11:48.183Z,98329.16
2022-11-05T07:13:52.939Z,98328.06
2022-11-05T07:15:57.751Z,98330.41
2022-11-05T07:18:03.615Z,98331.28
2022-11-05T07:20:10.863Z,98337.25
2022-11-05T07:22:18.242Z,98345.06
2022-11-05T07:24:23.183Z,98343.28
2022-11-05T07:26:33.362Z,98342.44
2022-11-05T07:28:39.288Z,98355.22
2022-11-05T07:30:44.131Z,98355.84
2022-11-05T07:32:48.902Z,98360.81
2022-11-05T07:34:53.646Z,98357.19
2022-11-05T07:36:58.588Z,98363.28
2022-11-05T07:39:06.018Z,98365.66
2022-11-05T07:41:10.853Z,98369.91
2022-11-05T07:43:15.791Z,98371.84
2022-11-05T07:45:21.489Z,98373.72
2022-11-05T07:47:26.243Z,98370.63
2022-11-05T07:49:31.067Z,98384.00
2022-11-05T07:51:35.839Z,98383.88
2022-11-05T07:53:45.037Z,98386.25
2022-11-05T07:55:52.793Z,98390.38
2022-11-05T07:57:57.665Z,98382.56
2022-11-05T08:00:02.424Z,98388.44
2022-11-05T08:02:17.333Z,98383.47
2022-11-05T08:04:22.231Z,98395.41
2022-11-05T08:06:27.048Z,98399.50
2022-11-05T08:08:31.935Z,98390.19
2022-11-05T08:10:37.385Z,98389.97
2022-11-05T08:12:44.782Z,98396.81
2022-11-05T08:14:49.641Z,98386.78
2022-11-05T08:16:54.465Z,98393.94
2022-11-05T08:18:59.239Z,98395.94
2022-11-05T08:21:06.104Z,98390.75
2022-11-05T08:23:11.189Z,98385.13
2022-11-05T08:25:16.585Z,98393.31
2022-11-05T08:27:21.198Z,98388.13
2022-11-05T08:29:30.838Z,98385.25
2022-11-05T08:31:39.704Z,98390.25
2022-11-05T08:33:44.464Z,98382.16
2022-11-05T08:35:50.008Z,98384.47
2022-11-05T08:37:59.357Z,98388.78
2022-11-05T08:40:04.153Z,98389.13
2022-11-05T08:42:08.879Z,98391.50
2022-11-05T08:44:13.694Z,98389.59
2022-11-05T08:46:21.108Z,98389.41
2022-11-05T08:48:25.938Z,98384.56
2022-11-05T08:50:30.893Z,98387.56
2022-11-05T08:52:35.762Z,98402.66
2022-11-05T08:54:40.507Z,98402.09
2022-11-05T08:56:48.216Z,98404.31
2022-11-05T08:58:53.034Z,98413.75
2022-11-05T09:01:03.412Z,98417.81
2022-11-05T09:03:12.619Z,98420.28
2022-11-05T09:05:17.677Z,98427.06
2022-11-05T09:07:22.994Z,98426.81
2022-11-05T09:09:27.784Z,98412.28
2022-11-05T09:11:57.056Z,98417.19
2022-11-05T09:13:57.375Z,98413.25
2022-11-05T09:16:02.469Z,98417.16
2022-11-05T09:18:07.639Z,98417.59
2022-11-05T09:20:15.753Z,98421.59
2022-11-05T09:22:20.504Z,98411.91
2022-11-05T09:24:26.757Z,98413.63
2022-11-05T09:26:34.184Z,98412.59
2022-11-05T09:28:39.067Z,98412.09
2022-11-05T09:30:44.423Z,98409.41
2022-11-05T09:32:48.917Z,98411.25
2022-11-05T09:34:53.725Z,98414.72
2022-11-05T09:37:01.829Z,98417.97
2022-11-05T09:39:07.232Z,98424.56
2022-11-05T09:41:19.853Z,98412.06
2022-11-05T09:43:31.893Z,98422.31
2022-11-05T09:45:38.357Z,98415.94
2022-11-05T09:47:48.119Z,98413.34
2022-11-05T09:49:54.955Z,98423.38
2022-11-05T09:52:02.788Z,98424.22
2022-11-05T09:54:07.901Z,98426.50
2022-11-05T09:56:23.454Z,98427.88
2022-11-05T09:58:39.470Z,98425.22
2022-11-05T10:00:48.695Z,98432.94
2022-11-05T10:02:56.577Z,98436.97
2022-11-05T10:05:09.648Z,98436.22
2022-11-05T10:07:23.489Z,98435.31
2022-11-05T10:09:31.921Z,98436.00
2022-11-05T10:11:41.992Z,98432.75
2022-11-05T10:13:50.067Z,98434.56
2022-11-05T10:16:03.097Z,98439.16
2022-11-05T10:18:16.332Z,98437.09
2022-11-05T10:20:27.459Z,98437.19
2022-11-05T10:22:35.888Z,98439.56
2022-11-05T10:24:43.833Z,98446.53
2022-11-05T10:26:51.749Z,98440.56
2022-11-05T10:28:57.545Z,98442.25
2022-11-05T10:31:04.511Z,98441.66
2022-11-05T10:33:11.489Z,98444.06
2022-11-05T10:35:22.645Z,98445.03
2022-11-05T10:37:28.293Z,98441.31
2022-11-05T10:39:37.209Z,98451.19
2022-11-05T10:42:02.420Z,98450.28
2022-11-05T10:44:19.954Z,98453.56
2022-11-05T10:46:32.633Z,98460.44
2022-11-05T10:48:55.867Z,98457.66
2022-11-05T10:51:00.903Z,98459.28
2022-11-05T10:53:14.087Z,98462.47
2022-11-05T10:55:26.811Z,98472.97
2022-11-05T10:57:35.505Z,98463.50
2022-11-05T10:59:40.308Z,98454.38
2022-11-05T11:01:48.709Z,98459.88
2022-11-05T11:04:06.266Z,98458.06
2022-11-05T11:06:22.479Z,98447.63
2022-11-05T11:08:27.794Z,98451.03
2022-11-05T11:10:44.190Z,98445.16
2022-11-05T11:12:49.826Z,98450.84
2022-11-05T11:15:03.510Z,98450.00
2022-11-05T11:17:28.608Z,98447.38
2022-11-05T11:19:34.851Z,98454.44
2022-11-05T11:21:41.764Z,98445.31
2022-11-05T11:23:55.806Z,98444.19
2022-11-05T11:26:05.518Z,98443.28
2022-11-05T11:28:19.176Z,98442.16
2022-11-05T11:30:24.362Z,98443.09
2022-11-05T11:32:30.225Z,98453.38
2022-11-05T11:34:38.895Z,98447.44
2022-11-05T11:36:49.567Z,98446.44
2022-11-05T11:39:01.152Z,98459.78
2022-11-05T11:41:22.150Z,98458.13
2022-11-05T11:43:30.703Z,98471.22
2022-11-05T11:45:39.449Z,98471.66
2022-11-05T11:47:50.030Z,98468.69
2022-11-05T11:49:56.512Z,98469.16
2022-11-05T11:52:05.959Z,98473.63
2022-11-05T11:54:25.940Z,98473.13
2022-11-05T11:56:46.447Z,98472.69
2022-11-05T11:58:53.115Z,98471.09
2022-11-05T12:01:05.282Z,98475.66
2022-11-05T12:03:28.551Z,98470.38
2022-11-05T12:05:41.812Z,98466.72
2022-11-05T12:07:53.239Z,98473.13
2022-11-05T12:10:20.845Z,98472.47
2022-11-05T12:12:35.044Z,98483.19
2022-11-05T12:14:48.336Z,98475.38
2022-11-05T12:17:05.729Z,98474.59
2022-11-05T12:19:22.764Z,98465.84
2022-11-05T12:21:51.909Z,98471.72
2022-11-05T12:24:17.705Z,98457.59
2022-11-05T12:26:32.040Z,98465.72
2022-11-05T12:31:34.431Z,98463.97
2022-11-05T12:33:49.143Z,98460.94
2022-11-05T12:36:05.925Z,98459.28
2022-11-05T12:38:22.393Z,98460.56
2022-11-05T12:40:43.619Z,98468.22
2022-11-05T12:43:01.297Z,98471.34
2022-11-05T12:45:26.645Z,98471.78
2022-11-05T12:47:49.522Z,98472.19
2022-11-05T12:50:06.992Z,98471.78
2022-11-05T12:52:36.593Z,98474.97
2022-11-05T12:54:55.722Z,98472.56
2022-11-05T12:57:04.370Z,98473.00
2022-11-05T12:59:17.566Z,98471.72
2022-11-05T13:01:33.850Z,98470.19
2022-11-05T13:03:45.382Z,98469.91
2022-11-05T13:05:55.208Z,98475.56
2022-11-05T13:08:05.243Z,98481.69
2022-11-05T13:10:21.287Z,98478.03
2022-11-05T13:12:30.252Z,98479.47
2022-11-05T13:14:42.018Z,98475.97
2022-11-05T13:16:52.459Z,98480.50
2022-11-05T13:19:02.757Z,98486.06
2022-11-05T13:21:09.228Z,98481.84
2022-11-05T13:23:26.818Z,98485.53
2022-11-05T13:25:34.518Z,98481.63
2022-11-05T13:27:52.970Z,98481.50
2022-11-05T13:30:04.809Z,98483.22
2022-11-05T13:32:20.043Z,98485.31
2022-11-05T13:34:25.035Z,98487.94
2022-11-05T13:36:47.603Z,98488.66
2022-11-05T13:39:09.335Z,98501.00
2022-11-05T13:41:28.021Z,98500.84
2022-11-05T13:43:58.421Z,98500.56
2022-11-05T13:46:30.784Z,98495.91
2022-11-05T13:49:03.915Z,98503.09
2022-11-05T13:51:39.164Z,98502.25
2022-11-05T13:54:03.809Z,98495.22
2022-11-05T13:56:22.870Z,98507.47
2022-11-05T13:58:47.556Z,98505.50
2022-11-05T14:01:06.400Z,98500.16
2022-11-05T14:03:20.904Z,98500.50
2022-11-05T14:05:37.524Z,98507.28
2022-11-05T14:07:49.428Z,98504.59
2022-11-05T14:10:00.117Z,98503.13
2022-11-05T14:12:05.778Z,98496.63
2022-11-05T14:14:19.079Z,98489.06
2022-11-05T14:16:26.209Z,98497.44
2022-11-05T14:18:40.825Z,98500.56
2022-11-05T14:21:01.507Z,98498.47
2022-11-05T14:23:39.185Z,98497.03
2022-11-05T14:26:15.067Z,98498.16
2022-11-05T14:28:42.985Z,98493.06
2022-11-05T14:30:49.021Z,98496.75
2022-11-05T14:32:55.569Z,98497.75
2022-11-05T14:35:05.318Z,98493.66
2022-11-05T14:37:33.775Z,98496.13
2022-11-05T14:39:38.758Z,98500.28
2022-11-05T14:42:14.494Z,98501.41
2022-11-05T14:44:19.445Z,98518.03
2022-11-05T14:46:24.694Z,98513.81
2022-11-05T14:48:43.453Z,98517.34
2022-11-05T14:50:49.334Z,98522.88
2022-11-05T14:52:58.785Z,98527.72
2022-11-05T14:55:03.740Z,98526.16
2022-11-05T14:57:08.561Z,98534.22
2022-11-05T14:59:53.480Z,98541.00
2022-11-05T15:02:00.781Z,98551.88
2022-11-05T15:04:19.281Z,98556.66
2022-11-05T15:06:30.739Z,98556.44
2022-11-05T15:08:54.590Z,98557.16
2022-11-05T15:11:08.119Z,98555.66
2022-11-05T15:13:31.319Z,98563.53
2022-11-05T15:15:46.644Z,98559.34
2022-11-05T15:18:01.299Z,98563.06
2022-11-05T15:20:13.677Z,98565.38
2022-11-05T15:22:31.011Z,98564.88
2022-11-05T15:24:38.745Z,98576.13
2022-11-05T15:26:50.002Z,98562.97
2022-11-05T15:28:56.296Z,98580.38
2022-11-05T15:31:03.493Z,98581.31
2022-11-05T15:33:13.448Z,98580.50
2022-11-05T15:35:43.731Z,98581.69
2022-11-05T15:37:54.579Z,98585.13
2022-11-05T15:40:04.802Z,98588.78
2022-11-05T15:42:15.807Z,98593.13
2022-11-05T15:44:33.057Z,98593.22
2022-11-05T15:46:37.964Z,98601.06
2022-11-05T15:48:43.040Z,98604.75
2022-11-05T15:50:48.015Z,98601.94
2022-11-05T15:52:54.721Z,98604.56
2022-11-05T15:55:22.258Z,98601.28
2022-11-05T15:57:31.028Z,98613.47
2022-11-05T15:59:35.914Z,98601.28
2022-11-05T16:01:50.085Z,98602.22
2022-11-05T16:03:56.731Z,98607.47
2022-11-05T16:06:03.834Z,98606.69
2022-11-05T16:08:09.070Z,98605.94
2022-11-05T16:10:22.780Z,98613.00
2022-11-05T16:12:34.826Z,98615.59
2022-11-05T16:14:39.747Z,98610.94
2022-11-05T16:16:47.743Z,98615.03
2022-11-05T16:18:52.891Z,98609.91
2022-11-05T16:21:06.020Z,98611.44
2022-11-05T16:23:26.104Z,98615.00
2022-11-05T16:25:39.058Z,98609.06
2022-11-05T16:27:48.859Z,98613.00
2022-11-05T16:29:55.689Z,98624.25
2022-11-05T16:32:03.077Z,98635.47
2022-11-05T16:34:08.425Z,98628.44
2022-11-05T16:36:13.099Z,98640.84
2022-11-05T16:38:19.593Z,98628.91
2022-11-05T16:40:27.434Z,98639.09
2022-11-05T16:42:42.878Z,98639.63
2022-11-05T16:44:47.761Z,98641.09
2022-11-05T16:46:53.403Z,98647.91
2022-11-05T16:48:59.103Z,98651.97
2022-11-05T16:51:04.043Z,98649.13
2022-11-05T16:53:09.299Z,98644.03
2022-11-05T16:55:13.951Z,98645.44
2022-11-05T16:57:26.967Z,98659.91
2022-11-05T16:59:34.658Z,98659.97
2022-11-05T17:01:42.286Z,98663.34
2022-11-05T17:03:48.205Z,98670.66
2022-11-05T17:05:52.956Z,98668.03
2022-11-05T17:07:58.199Z,98672.44
2022-11-05T17:10:02.689Z,98678.00
2022-11-05T17:12:07.961Z,98678.25
2022-11-05T17:14:14.413Z,98679.47
2022-11-05T17:16:21.769Z,98683.72
2022-11-05T17:18:26.851Z,98692.69
2022-11-05T17:20:39.407Z,98689.28
2022-11-05T17:22:44.942Z,98702.34
2022-11-05T17:24:49.975Z,98696.03
2022-11-05T17:26:54.780Z,98693.88
2022-11-05T17:28:59.600Z,98690.84
2022-11-05T17:31:05.827Z,98688.88
2022-11-05T17:33:14.868Z,98682.59
2022-11-05T17:35:20.173Z,98679.91
2022-11-05T17:37:24.992Z,98681.69
2022-11-05T17:39:31.851Z,98684.16
2022-11-05T17:41:36.964Z,98677.91
2022-11-05T17:43:41.882Z,98676.91
2022-11-05T17:45:48.402Z,98678.47
2022-11-05T17:47:53.322Z,98685.00
2022-11-05T17:50:00.713Z,98682.50
2022-11-05T17:52:05.479Z,98688.47
2022-11-05T17:54:10.333Z,98682.41
2022-11-05T17:56:27.180Z,98686.50
2022-11-05T17:58:37.169Z,98683.63
2022-11-05T18:00:42.480Z,98687.88
2022-11-05T18:02:49.697Z,98690.53
2022-11-05T18:04:54.722Z,98698.59
2022-11-05T18:07:02.183Z,98693.31
2022-11-05T18:09:07.673Z,98699.31
2022-11-05T18:11:12.487Z,98690.66
2022-11-05T18:13:17.461Z,98692.31
2022-11-05T18:15:22.478Z,98697.44
2022-11-05T18:17:27.317Z,98689.63
2022-11-05T18:19:32.593Z,98694.84
2022-11-05T18:21:37.101Z,98700.25
2022-11-05T18:23:44.512Z,98701.03
2022-11-05T18:25:49.256Z,98696.78
2022-11-05T18:27:54.554Z,98699.63
2022-11-05T18:29:59.097Z,98713.09
2022-11-05T18:32:03.972Z,98712.38
2022-11-05T18:34:10.469Z,98710.00
2022-11-05T18:36:20.533Z,98706.59
2022-11-05T18:38:25.565Z,98713.53
2022-11-05T18:40:35.154Z,98708.13
2022-11-05T18:42:40.175Z,98703.88
2022-11-05T18:44:44.921Z,98706.56
2022-11-05T18:46:58.205Z,98701.47
2022-11-05T18:49:04.092Z,98698.00
2022-11-05T18:51:11.278Z,98698.00
2022-11-05T18:53:16.053Z,98704.19
2022-11-05T18:55:20.816Z,98710.50
2022-11-05T18:57:28.317Z,98705.38
2022-11-05T18:59:39.044Z,98706.44
2022-11-05T19:01:45.604Z,98711.03
2022-11-05T19:03:51.769Z,98714.50
2022-11-05T19:05:56.583Z,98709.53
2022-11-05T19:08:01.745Z,98717.50
2022-11-05T19:10:06.493Z,98718.63
2022-11-05T19:12:11.305Z,98712.69
2022-11-05T19:14:19.027Z,98724.06
2022-11-05T19:16:26.094Z,98721.56
2022-11-05T19:18:31.235Z,98720.81
2022-11-05T19:20:37.892Z,98725.22
2022-11-05T19:22:43.029Z,98734.72
2022-11-05T19:24:47.770Z,98728.66
2022-11-05T19:26:52.561Z,98735.78
2022-11-05T19:28:57.431Z,98735.03
2022-11-05T19:31:05.131Z,98732.31
2022-11-05T19:33:10.021Z,98731.34
2022-11-05T19:35:14.811Z,98727.72
2022-11-05T19:37:20.074Z,98716.38
2022-11-05T19:39:24.662Z,98722.63
2022-11-05T19:41:30.233Z,98717.44
2022-11-05T19:43:36.054Z,98713.97
2022-11-05T19:45:45.436Z,98717.44
2022-11-05T19:47:53.016Z,98724.31
2022-11-05T19:49:58.157Z,98732.00
2022-11-05T19:52:02.630Z,98726.03
2022-11-05T19:54:08.106Z,98732.06
2022-11-05T19:56:16.070Z,98734.56
2022-11-05T19:58:20.847Z,98731.06
2022-11-05T20:00:25.690Z,98735.31
2022-11-05T20:02:30.582Z,98740.47
2022-11-05T20:04:38.087Z,98742.16
2022-11-05T20:06:42.863Z,98748.13
2022-11-05T20:09:15.377Z,98748.13
2022-11-05T20:11:13.274Z,98747.25
2022-11-05T20:13:19.982Z,98756.75
2022-11-05T20:15:25.109Z,98750.69
2022-11-05T20:17:29.914Z,98754.94
2022-11-05T20:19:35.500Z,98767.88
2022-11-05T20:21:43.487Z,98763.38
2022-11-05T20:23:48.818Z,98755.59
2022-11-05T20:25:56.073Z,98766.97
2022-11-05T20:28:01.265Z,98764.47
2022-11-05T20:30:06.240Z,98764.78
2022-11-05T20:32:12.730Z,98767.34
2022-11-05T20:34:17.721Z,98766.34
2022-11-05T20:36:25.033Z,98763.63
2022-11-05T20:38:32.679Z,98770.66
2022-11-05T20:40:37.478Z,98762.91
2022-11-05T20:42:42.404Z,98765.75
2022-11-05T20:44:47.362Z,98764.78
2022-11-05T20:46:52.147Z,98764.66
2022-11-05T20:48:57.270Z,98756.84
2022-11-05T20:51:02.634Z,98763.03
2022-11-05T20:53:07.498Z,98761.34
2022-11-05T20:55:15.009Z,98759.06
2022-11-05T20:57:19.812Z,98766.03
2022-11-05T20:59:24.869Z,98772.88
2022-11-05T21:01:31.727Z,98777.97
2022-11-05T21:03:36.751Z,98782.25
2022-11-05T21:05:41.684Z,98777.03
2022-11-05T21:07:46.508Z,98778.75
2022-11-05T21:09:51.252Z,98783.97
2022-11-05T21:12:13.765Z,98783.09
2022-11-05T21:14:18.750Z,98784.88
2022-11-05T21:16:23.760Z,98783.94
2022-11-05T21:18:30.752Z,98784.78
2022-11-05T21:20:35.485Z,98783.84
2022-11-05T21:22:43.073Z,98778.72
2022-11-05T21:24:47.813Z,98784.88
2022-11-05T21:26:52.668Z,98783.44
2022-11-05T21:29:00.004Z,98784.47
2022-11-05T21:31:06.103Z,98786.44
2022-11-05T21:33:11.994Z,98784.72
2022-11-05T21:35:16.789Z,98775.19
2022-11-05T21:37:21.663Z,98775.22
2022-11-05T21:39:27.787Z,98776.97
2022-11-05T21:41:32.726Z,98779.63
2022-11-05T21:43:37.666Z,98783.19
2022-11-05T21:45:46.520Z,98783.31
2022-11-05T21:47:51.289Z,98789.69
2022-11-05T21:49:56.041Z,98783.09
2022-11-05T21:52:13.190Z,98787.66
2022-11-05T21:54:30.428Z,98791.28
2022-11-05T21:56:48.222Z,98783.72
2022-11-05T21:59:05.506Z,98787.34
2022-11-05T22:01:15.893Z,98789.22
2022-11-05T22:03:20.669Z,98783.38
2022-11-05T22:05:25.533Z,98780.84
2022-11-05T22:07:32.990Z,98783.59
2022-11-05T22:09:38.410Z,98771.66
2022-11-05T22:11:43.142Z,98773.47
2022-11-05T22:13:48.300Z,98776.97
2022-11-05T22:15:59.370Z,98780.47
2022-11-05T22:18:07.060Z,98785.75
2022-11-05T22:20:12.633Z,98781.53
2022-11-05T22:22:17.803Z,98797.31
2022-11-05T22:24:22.783Z,98799.16
2022-11-05T22:26:27.597Z,98793.31
2022-11-05T22:28:32.488Z,98804.81
2022-11-05T22:30:37.481Z,98808.59
2022-11-05T22:32:42.474Z,98794.78
2022-11-05T22:34:50.759Z,98800.91
2022-11-05T22:36:55.752Z,98804.28
2022-11-05T22:39:00.584Z,98805.16
2022-11-05T22:41:09.876Z,98798.28
2022-11-05T22:43:14.619Z,98797.47
2022-11-05T22:45:19.506Z,98795.78
2022-11-05T22:47:24.274Z,98787.97
2022-11-05T22:49:29.051Z,98792.41
2022-11-05T22:51:38.645Z,98790.78
2022-11-05T22:53:44.204Z,98780.44
2022-11-05T22:55:48.948Z,98779.63
2022-11-05T22:57:53.741Z,98782.31
2022-11-05T22:59:58.491Z,98780.63
2022-11-05T23:02:09.259Z,98788.41
2022-11-05T23:04:15.526Z,98785.81
2022-11-05T23:06:34.791Z,98781.53
2022-11-05T23:08:54.400Z,98776.38
2022-11-05T23:11:23.236Z,98791.03
2022-11-05T23:13:28.072Z,98783.34
2022-11-05T23:15:45.224Z,98772.97
2022-11-05T23:18:02.417Z,98779.88
2022-11-05T23:20:21.140Z,98779.78
2022-11-05T23:22:40.122Z,98778.03
2022-11-05T23:24:47.651Z,98780.63
2022-11-05T23:26:58.023Z,98784.97
2022-11-05T23:29:02.845Z,98776.47
2022-11-05T23:31:24.202Z,98773.00
2022-11-05T23:33:29.346Z,98777.38
2022-11-05T23:35:46.583Z,98774.00
2022-11-05T23:38:03.837Z,98777.47
2022-11-05T23:40:14.931Z,98780.03
2022-11-05T23:42:32.560Z,98781.00
2022-11-05T23:44:49.791Z,98783.63
2022-11-05T23:47:06.994Z,98784.50
2022-11-05T23:49:11.825Z,98780.19
2022-11-05T23:51:16.855Z,98775.13
2022-11-05T23:53:22.566Z,98775.19
2022-11-05T23:55:30.006Z,98778.69
2022-11-05T23:57:34.773Z,98778.72
2022-11-05T23:59:39.966Z,98772.69
